Time;durP1;ratioP1;P1;durP2;ratioP2;P2;SDS_P1;SDS_P2;PMS_P1;PMS_P2;Temp;Humidity;BMP_temperature;BMP_pressure;BME280_temperature;BME280_humidity;BME280_pressure;Samples;Min_cycle;Max_cycle;Signal;HPM_P1;HPM_P2
2022/01/10 00:01:53;;;;;;;14.77;8.32;;;;;;;2.42;83.70;100114.84;5078817;28;20047;-21
2022/01/10 00:04:18;;;;;;;14.13;8.30;;;;;;;2.42;83.85;100123.53;5081020;28;20024;-21
2022/01/10 00:06:43;;;;;;;13.48;8.15;;;;;;;2.42;84.01;100136.56;5082171;28;20034;-22
2022/01/10 00:09:09;;;;;;;12.60;8.82;;;;;;;2.41;83.74;100137.38;5081377;28;20023;-21
2022/01/10 00:11:34;;;;;;;12.75;8.68;;;;;;;2.41;83.64;100134.78;5075026;28;20044;-22
2022/01/10 00:13:59;;;;;;;12.13;7.63;;;;;;;2.39;83.64;100136.50;5076899;28;20028;-21
2022/01/10 00:16:25;;;;;;;15.23;8.73;;;;;;;2.40;83.89;100140.84;5074994;28;20040;-22
2022/01/10 00:18:50;;;;;;;12.88;8.38;;;;;;;2.38;83.83;100152.09;5077628;28;20034;-21
2022/01/10 00:21:16;;;;;;;13.25;9.07;;;;;;;2.38;83.88;100150.38;5077747;28;20108;-21
2022/01/10 00:23:41;;;;;;;10.82;7.10;;;;;;;2.38;83.70;100155.59;5074502;28;20059;-22
2022/01/10 00:26:07;;;;;;;10.57;7.38;;;;;;;2.39;83.79;100157.31;5078447;28;20027;-21
2022/01/10 00:28:32;;;;;;;15.93;7.68;;;;;;;2.37;83.79;100159.00;5082244;28;20046;-22
2022/01/10 00:30:58;;;;;;;12.30;8.80;;;;;;;2.38;83.82;100160.78;5077752;28;20032;-22
2022/01/10 00:33:23;;;;;;;12.85;7.88;;;;;;;2.37;83.83;100169.44;5077957;28;20032;-22
2022/01/10 00:35:48;;;;;;;9.65;7.18;;;;;;;2.37;83.90;100171.16;5082654;28;20028;-22
2022/01/10 00:38:14;;;;;;;12.13;8.02;;;;;;;2.36;83.93;100177.22;5062694;28;20067;-22
2022/01/10 00:40:40;;;;;;;13.80;8.18;;;;;;;2.34;83.59;100181.53;5076149;28;20095;-22
2022/01/10 00:43:06;;;;;;;10.70;7.47;;;;;;;2.34;83.79;100182.41;5078917;28;20033;-22
2022/01/10 00:45:31;;;;;;;12.23;7.70;;;;;;;2.32;83.84;100186.69;5075598;28;20092;-22
2022/01/10 00:47:58;;;;;;;14.90;7.85;;;;;;;2.32;83.72;100184.09;5079203;28;20044;-22
2022/01/10 00:50:25;;;;;;;11.30;7.65;;;;;;;2.31;83.57;100196.22;5081252;28;20012;-22
2022/01/10 00:52:51;;;;;;;14.05;8.38;;;;;;;2.29;83.79;100194.44;5079104;28;20067;-22
2022/01/10 00:55:16;;;;;;;12.45;7.85;;;;;;;2.29;83.71;100203.16;5084219;28;20047;-22
2022/01/10 00:57:42;;;;;;;10.80;8.20;;;;;;;2.28;83.95;100205.72;5077135;28;20073;-22
2022/01/10 01:00:11;;;;;;;10.55;7.90;;;;;;;2.28;83.83;100201.41;5076923;28;20555;-22
2022/01/10 01:02:36;;;;;;;12.68;8.07;;;;;;;2.25;83.68;100200.47;5074813;28;20035;-20
2022/01/10 01:05:06;;;;;;;10.98;8.32;;;;;;;2.29;83.20;100223.09;5073764;28;20033;-22
2022/01/10 01:07:32;;;;;;;10.18;7.60;;;;;;;2.27;83.95;100227.41;5079162;28;20097;-22
2022/01/10 01:10:18;;;;;;;11.70;8.30;;;;;;;2.25;83.54;100216.06;5078737;28;20028;-20
2022/01/10 01:12:53;;;;;;;11.98;7.70;;;;;;;2.25;84.05;100229.09;5076564;28;20078;-19
2022/01/10 01:15:23;;;;;;;11.50;7.88;;;;;;;2.25;83.72;100229.09;5082716;28;20077;-21
2022/01/10 01:26:03;;;;;;;12.77;7.85;;;;;;;2.22;83.51;100262.84;5076341;28;20314;-20
2022/01/10 01:28:29;;;;;;;12.00;8.15;;;;;;;2.22;83.64;100262.84;5076120;28;20101;-21
2022/01/10 01:30:55;;;;;;;11.07;7.82;;;;;;;2.21;83.64;100266.31;5075147;28;20487;-21
2022/01/10 01:33:20;;;;;;;11.15;7.90;;;;;;;2.21;83.60;100266.31;5076709;28;20036;-20
2022/01/10 01:35:47;;;;;;;13.25;8.77;;;;;;;2.20;83.66;100281.03;5073044;28;20059;-19
2022/01/10 01:38:13;;;;;;;10.07;7.53;;;;;;;2.18;83.82;100278.44;5071788;28;20047;-22
2022/01/10 01:40:53;;;;;;;12.48;8.25;;;;;;;2.20;83.80;100287.97;5078684;28;20081;-20
2022/01/10 01:43:18;;;;;;;14.00;8.80;;;;;;;2.17;83.76;100292.28;5074281;28;20028;-22
2022/01/10 01:45:46;;;;;;;13.50;8.70;;;;;;;2.18;83.58;100295.75;5080429;28;20031;-21
2022/01/10 01:48:12;;;;;;;11.13;7.75;;;;;;;2.16;83.80;100298.31;5078518;28;20028;-22
2022/01/10 01:50:38;;;;;;;14.32;9.23;;;;;;;2.17;83.90;100302.69;5076883;28;20047;-21
2022/01/10 01:53:04;;;;;;;13.27;8.73;;;;;;;2.16;83.74;100303.53;5068738;28;20031;-22
2022/01/10 01:55:29;;;;;;;12.88;8.55;;;;;;;2.16;83.63;100306.13;5075734;28;20024;-21
2022/01/10 01:57:55;;;;;;;13.50;8.60;;;;;;;2.16;83.73;100300.94;5071830;28;20055;-22
2022/01/10 02:00:22;;;;;;;12.38;7.57;;;;;;;2.16;83.87;100306.13;5077070;28;20048;-21
2022/01/10 02:02:52;;;;;;;10.50;8.10;;;;;;;2.16;83.74;100310.44;5075587;28;20039;-21
2022/01/10 02:05:17;;;;;;;12.38;8.70;;;;;;;2.15;84.02;100307.00;5074457;28;20032;-19
2022/01/10 02:07:43;;;;;;;10.10;7.28;;;;;;;2.15;83.48;100308.69;5071827;28;20025;-22
2022/01/10 02:10:09;;;;;;;10.65;8.30;;;;;;;2.16;83.71;100313.06;5072398;28;20066;-21
2022/01/10 02:12:34;;;;;;;12.27;8.38;;;;;;;2.16;83.66;100315.66;5080916;28;20466;-21
2022/01/10 02:14:59;;;;;;;13.25;8.23;;;;;;;2.15;83.65;100317.41;5075231;28;20086;-21
2022/01/10 02:17:34;;;;;;;13.85;8.27;;;;;;;2.14;83.79;100318.22;5072386;28;20036;-22
2022/01/10 02:20:00;;;;;;;12.48;8.70;;;;;;;2.14;83.54;100326.03;5074770;28;20020;-22
2022/01/10 02:22:26;;;;;;;13.13;8.38;;;;;;;2.13;83.80;100324.28;5075363;28;20112;-22
2022/01/10 02:24:52;;;;;;;11.95;8.02;;;;;;;2.15;83.70;100333.00;5072475;28;20107;-22
2022/01/10 02:27:21;;;;;;;13.10;8.82;;;;;;;2.13;83.69;100332.09;5078526;28;20020;-21
2022/01/10 02:29:46;;;;;;;11.63;8.00;;;;;;;2.14;83.64;100332.97;5074959;28;20017;-21
2022/01/10 02:32:12;;;;;;;12.05;8.13;;;;;;;2.14;83.58;100335.59;5073272;28;20107;-22
2022/01/10 02:34:37;;;;;;;15.48;9.13;;;;;;;2.12;83.79;100335.53;5074425;28;20115;-21
2022/01/10 02:37:02;;;;;;;13.77;9.38;;;;;;;2.13;83.92;100342.50;5077914;28;20093;-21
2022/01/10 02:39:28;;;;;;;12.40;8.40;;;;;;;2.14;83.59;100344.25;5072218;28;20032;-22
2022/01/10 02:41:53;;;;;;;12.32;8.18;;;;;;;2.12;83.82;100345.94;5078868;28;20024;-21
2022/01/10 02:44:18;;;;;;;13.13;9.00;;;;;;;2.13;83.78;100352.91;5075651;28;20035;-21
2022/01/10 02:46:45;;;;;;;10.93;7.93;;;;;;;2.12;83.67;100356.38;5073526;28;20039;-20
2022/01/10 02:49:15;;;;;;;11.80;8.00;;;;;;;2.12;83.64;100351.16;5077458;28;20024;-22
2022/01/10 02:51:41;;;;;;;11.77;8.45;;;;;;;2.11;83.77;100359.81;5071050;28;20920;-21
2022/01/10 02:54:07;;;;;;;13.05;8.73;;;;;;;2.09;83.61;100351.09;5077124;28;20389;-21
2022/01/10 02:56:49;;;;;;;15.82;10.25;;;;;;;2.11;83.63;100365.03;5074813;28;20032;-21
2022/01/10 02:59:15;;;;;;;13.23;9.13;;;;;;;2.09;83.63;100360.59;5073675;28;20074;-21
2022/01/10 03:01:40;;;;;;;14.20;9.32;;;;;;;2.07;83.62;100364.91;5068217;28;20020;-21
2022/01/10 03:04:05;;;;;;;15.38;9.77;;;;;;;2.02;83.49;100364.81;5076313;28;20494;-22
2022/01/10 03:06:32;;;;;;;14.57;10.45;;;;;;;2.07;83.56;100380.53;5068546;28;20024;-22
2022/01/10 03:09:04;;;;;;;16.25;9.73;;;;;;;2.04;83.87;100379.59;5079165;28;20051;-22
2022/01/10 03:11:29;;;;;;;17.13;10.05;;;;;;;2.04;83.60;100384.81;5075179;28;20081;-22
2022/01/10 03:13:55;;;;;;;12.93;9.40;;;;;;;2.01;83.63;100389.09;5075612;28;20032;-21
2022/01/10 03:16:20;;;;;;;15.45;10.40;;;;;;;2.02;83.68;100398.63;5072307;28;20128;-21
2022/01/10 03:18:45;;;;;;;15.45;9.85;;;;;;;2.01;83.66;100404.69;5078077;28;20060;-22
2022/01/10 03:21:10;;;;;;;13.90;9.27;;;;;;;1.99;83.68;100406.38;5076946;28;20060;-22
2022/01/10 03:23:36;;;;;;;13.55;9.32;;;;;;;1.97;83.46;100415.88;5073001;28;20119;-21
2022/01/10 03:26:01;;;;;;;16.00;9.98;;;;;;;1.99;83.46;100419.38;5070187;28;20101;-21
2022/01/10 03:28:26;;;;;;;13.48;9.32;;;;;;;1.97;83.64;100434.94;5070247;28;20460;-21
2022/01/10 03:30:52;;;;;;;12.75;9.85;;;;;;;1.96;83.01;100437.53;5070393;28;20538;-22
2022/01/10 03:33:17;;;;;;;12.30;8.50;;;;;;;1.92;83.30;100442.66;5073864;28;20032;-19
2022/01/10 03:35:43;;;;;;;11.90;8.40;;;;;;;1.95;83.46;100447.06;5076950;28;20029;-21
2022/01/10 03:38:08;;;;;;;13.52;8.88;;;;;;;1.92;83.50;100447.88;5080135;28;20039;-22
2022/01/10 03:40:33;;;;;;;13.40;9.25;;;;;;;1.89;83.52;100447.78;5072909;28;20491;-21
2022/01/10 03:42:59;;;;;;;15.35;9.20;;;;;;;1.90;83.27;100457.34;5077382;28;20039;-21
2022/01/10 03:45:24;;;;;;;17.52;9.07;;;;;;;1.90;83.58;100467.75;5072037;28;20032;-21
2022/01/10 03:47:49;;;;;;;14.43;9.45;;;;;;;1.88;83.66;100474.66;5074651;28;20487;-22
2022/01/10 03:50:15;;;;;;;12.85;8.50;;;;;;;1.87;83.58;100478.06;5079844;28;20307;-22
2022/01/10 03:52:42;;;;;;;13.93;9.57;;;;;;;1.86;83.40;100489.34;5076506;28;20067;-27
2022/01/10 03:55:08;;;;;;;13.38;8.52;;;;;;;1.86;83.28;100493.63;5079467;28;20024;-22
2022/01/10 03:57:34;;;;;;;15.50;9.23;;;;;;;1.84;83.58;100488.44;5076552;28;20448;-21
2022/01/10 03:59:59;;;;;;;14.68;9.50;;;;;;;1.86;83.66;100498.84;5064205;28;20036;-21
2022/01/10 04:02:26;;;;;;;13.38;8.13;;;;;;;1.85;83.63;100498.00;5071763;28;20035;-22
2022/01/10 04:04:51;;;;;;;14.50;8.57;;;;;;;1.82;83.47;100503.09;5081185;28;20028;-22
2022/01/10 04:07:18;;;;;;;11.82;9.02;;;;;;;1.83;83.41;100512.66;5075893;28;20029;-21
2022/01/10 04:09:43;;;;;;;12.32;9.20;;;;;;;1.82;83.55;100500.50;5080356;28;20096;-22
2022/01/10 04:12:09;;;;;;;12.82;8.90;;;;;;;1.79;83.58;100508.22;5076132;28;20527;-22
2022/01/10 04:14:34;;;;;;;14.52;9.30;;;;;;;1.82;83.52;100518.72;5078311;28;20028;-22
2022/01/10 04:16:59;;;;;;;16.70;8.90;;;;;;;1.83;83.81;100527.41;5075590;28;20459;-21
2022/01/10 04:19:25;;;;;;;12.63;8.93;;;;;;;1.82;83.60;100534.31;5073165;28;20071;-18
2022/01/10 04:21:50;;;;;;;14.43;8.98;;;;;;;1.83;83.44;100536.06;5077382;28;20020;-21
2022/01/10 04:24:16;;;;;;;13.35;8.40;;;;;;;1.82;83.69;100539.53;5082626;28;20467;-22
2022/01/10 04:26:41;;;;;;;16.42;8.88;;;;;;;1.82;83.91;100549.91;5075813;28;20074;-21
2022/01/10 04:29:06;;;;;;;11.65;7.97;;;;;;;1.81;83.93;100558.56;5074650;28;20063;-22
2022/01/10 04:31:32;;;;;;;14.45;8.48;;;;;;;1.80;83.76;100562.00;5077274;28;20051;-21
2022/01/10 04:33:57;;;;;;;13.50;8.88;;;;;;;1.82;83.55;100570.72;5078056;28;20129;-22
2022/01/10 04:36:22;;;;;;;12.10;7.70;;;;;;;1.80;83.61;100567.19;5080553;28;20037;-20
2022/01/10 04:38:48;;;;;;;12.88;8.55;;;;;;;1.83;83.67;100582.03;5073816;28;20059;-21
2022/01/10 04:41:13;;;;;;;12.85;8.48;;;;;;;1.82;83.57;100586.34;5076730;28;20024;-21
2022/01/10 04:43:39;;;;;;;11.68;8.05;;;;;;;1.84;83.79;100597.66;5075621;28;20091;-21
2022/01/10 04:46:04;;;;;;;11.85;8.32;;;;;;;1.82;83.49;100601.94;5076777;28;20028;-22
2022/01/10 04:48:29;;;;;;;14.82;8.57;;;;;;;1.82;83.98;100596.75;5085386;28;20402;-22
2022/01/10 04:51:12;;;;;;;13.40;8.48;;;;;;;1.82;83.72;100612.34;5073531;28;20103;-20
2022/01/10 04:53:39;;;;;;;11.60;7.80;;;;;;;1.84;83.66;100615.88;5062890;28;20032;-22
2022/01/10 04:56:04;;;;;;;13.73;8.38;;;;;;;1.84;83.70;100617.59;5062939;28;20028;-21
2022/01/10 04:58:30;;;;;;;13.57;8.82;;;;;;;1.81;83.81;100615.78;5052209;28;20020;-21
2022/01/10 05:00:55;;;;;;;10.55;7.75;;;;;;;1.85;83.82;100621.94;5067979;28;20024;-20
2022/01/10 05:03:21;;;;;;;13.40;8.02;;;;;;;1.84;83.68;100626.28;5069774;28;20488;-21
2022/01/10 05:05:52;;;;;;;11.88;8.60;;;;;;;1.84;83.75;100620.19;5070094;28;20020;-21
2022/01/10 05:08:17;;;;;;;15.50;10.07;;;;;;;1.82;83.60;100617.53;5068976;28;20280;-22
2022/01/10 05:10:44;;;;;;;12.02;8.20;;;;;;;1.84;83.63;100628.88;5071554;28;20494;-22
2022/01/10 05:13:09;;;;;;;12.25;7.75;;;;;;;1.85;83.65;100637.53;5074197;28;20495;-22
2022/01/10 05:15:34;;;;;;;13.40;8.57;;;;;;;1.85;83.75;100646.25;5078754;28;20059;-21
2022/01/10 05:18:00;;;;;;;11.57;8.05;;;;;;;1.83;83.96;100637.50;5073964;28;20071;-22
2022/01/10 05:20:25;;;;;;;12.00;7.65;;;;;;;1.85;83.89;100647.94;5074857;28;20017;-22
2022/01/10 05:22:50;;;;;;;13.55;8.93;;;;;;;1.85;83.96;100654.03;5072590;28;20028;-21
2022/01/10 05:25:15;;;;;;;14.73;8.43;;;;;;;1.85;84.00;100654.03;5079589;28;20466;-21
2022/01/10 05:27:41;;;;;;;12.38;8.73;;;;;;;1.85;84.01;100656.66;5075634;28;20020;-22
2022/01/10 05:30:07;;;;;;;13.45;8.70;;;;;;;1.84;83.93;100652.28;5075049;28;20182;-21
2022/01/10 05:32:32;;;;;;;12.93;8.23;;;;;;;1.85;83.63;100664.44;5073007;28;20036;-22
2022/01/10 05:34:58;;;;;;;14.07;8.63;;;;;;;1.85;83.76;100650.56;5073478;28;20059;-21
2022/01/10 05:37:23;;;;;;;12.90;9.20;;;;;;;1.86;83.76;100660.09;5070381;28;20028;-21
2022/01/10 05:39:48;;;;;;;10.82;7.68;;;;;;;1.87;83.70;100673.16;5073155;28;20032;-22
2022/01/10 05:42:14;;;;;;;12.02;7.70;;;;;;;1.87;83.63;100670.56;5072407;28;20085;-21
2022/01/10 05:44:40;;;;;;;12.90;7.80;;;;;;;1.87;83.56;100678.34;5067212;28;20024;-22
2022/01/10 05:47:05;;;;;;;12.13;8.25;;;;;;;1.88;83.51;100685.34;5069518;28;20093;-21
2022/01/10 05:49:34;;;;;;;11.70;7.47;;;;;;;1.88;83.28;100689.66;5064638;28;20032;-22
2022/01/10 05:52:00;;;;;;;11.80;7.80;;;;;;;1.85;83.97;100689.56;5074904;28;20008;-22
2022/01/10 05:54:26;;;;;;;11.52;8.23;;;;;;;1.87;83.94;100695.72;5074376;28;20031;-22
2022/01/10 05:56:52;;;;;;;10.20;7.97;;;;;;;1.89;83.61;100705.31;5077529;28;20317;-21
2022/01/10 05:59:18;;;;;;;14.07;7.88;;;;;;;1.89;83.66;100713.09;5074285;28;20135;-20
2022/01/10 06:01:43;;;;;;;12.30;8.35;;;;;;;1.89;84.07;100710.50;5069836;28;20541;-22
2022/01/10 06:04:09;;;;;;;11.48;8.23;;;;;;;1.88;84.01;100713.97;5067158;28;20444;-22
2022/01/10 06:06:34;;;;;;;13.00;8.52;;;;;;;1.89;84.03;100712.22;5068029;28;20556;-22
2022/01/10 06:08:59;;;;;;;12.32;8.95;;;;;;;1.88;83.96;100719.16;5074580;28;20020;-23
2022/01/10 06:11:25;;;;;;;14.05;8.63;;;;;;;1.87;84.08;100725.19;5069919;28;20044;-22
2022/01/10 06:13:50;;;;;;;16.52;8.38;;;;;;;1.87;83.98;100727.78;5071741;28;20117;-19
2022/01/10 06:16:16;;;;;;;9.52;6.93;;;;;;;1.90;83.71;100737.41;5064222;28;20135;-21
2022/01/10 06:18:41;;;;;;;15.13;8.55;;;;;;;1.91;84.00;100741.78;5080187;28;20078;-21
2022/01/10 06:21:07;;;;;;;12.57;9.18;;;;;;;1.92;83.89;100751.31;5062697;28;20040;-22
2022/01/10 06:23:32;;;;;;;11.00;8.15;;;;;;;1.89;83.92;100754.72;5079516;28;20028;-22
2022/01/10 06:25:58;;;;;;;12.20;8.55;;;;;;;1.92;84.00;100762.63;5078529;28;20111;-21
2022/01/10 06:28:24;;;;;;;12.18;7.63;;;;;;;1.90;83.89;100759.09;5075946;28;20025;-22
2022/01/10 06:30:49;;;;;;;10.25;7.90;;;;;;;1.90;83.74;100761.69;5077136;28;20055;-22
2022/01/10 06:33:14;;;;;;;12.07;8.32;;;;;;;1.92;83.85;100772.13;5073491;28;20024;-21
2022/01/10 06:35:39;;;;;;;10.50;7.70;;;;;;;1.92;83.79;100772.13;5069758;28;20021;-22
2022/01/10 06:38:05;;;;;;;12.05;8.15;;;;;;;1.91;83.80;100778.19;5064593;28;20115;-22
2022/01/10 06:40:31;;;;;;;14.93;9.05;;;;;;;1.91;83.82;100779.03;5060084;28;20073;-22
2022/01/10 06:42:56;;;;;;;11.02;7.65;;;;;;;1.93;83.98;100797.31;5062919;28;20035;-21
2022/01/10 06:45:22;;;;;;;11.02;8.15;;;;;;;1.91;84.01;100794.66;5060414;28;20496;-20
2022/01/10 06:47:47;;;;;;;11.27;7.72;;;;;;;1.94;83.82;100798.19;5065407;28;20103;-21
2022/01/10 06:50:13;;;;;;;12.60;7.82;;;;;;;1.92;83.83;100806.84;5072444;28;20123;-22
2022/01/10 06:52:38;;;;;;;11.73;8.10;;;;;;;1.94;83.80;100819.00;5068231;28;20372;-22
2022/01/10 06:55:04;;;;;;;11.00;8.10;;;;;;;1.94;83.79;100819.91;5078744;28;20683;-21
2022/01/10 06:57:30;;;;;;;13.25;8.05;;;;;;;1.96;83.75;100827.75;5074268;28;20028;-22
2022/01/10 06:59:55;;;;;;;9.23;7.72;;;;;;;1.95;83.73;100825.97;5076983;28;20403;-21
2022/01/10 07:02:20;;;;;;;13.77;7.88;;;;;;;1.94;83.58;100825.09;5077297;28;20484;-21
2022/01/10 07:04:46;;;;;;;11.90;7.20;;;;;;;1.96;83.59;100835.56;5073815;28;20419;-21
2022/01/10 07:07:11;;;;;;;10.70;8.13;;;;;;;1.96;83.91;100848.56;5073331;28;20399;-21
2022/01/10 07:09:37;;;;;;;12.38;8.18;;;;;;;1.96;83.81;100838.16;5074082;28;20474;-21
2022/01/10 07:12:03;;;;;;;14.00;8.23;;;;;;;1.96;83.73;100846.81;5071933;28;20467;-22
2022/01/10 07:14:31;;;;;;;16.48;8.85;;;;;;;1.95;84.03;100857.19;5070712;28;20028;-22
2022/01/10 07:16:56;;;;;;;15.52;8.85;;;;;;;1.96;83.85;100864.19;5067148;28;20039;-21
2022/01/10 07:19:23;;;;;;;14.55;8.20;;;;;;;1.95;84.17;100871.09;5069628;28;20024;-21
2022/01/10 07:21:48;;;;;;;15.95;9.43;;;;;;;1.95;83.95;100867.59;5063786;28;20027;-21
2022/01/10 07:24:14;;;;;;;12.68;8.55;;;;;;;1.96;84.12;100885.84;5080222;28;20024;-22
2022/01/10 07:26:39;;;;;;;12.82;8.40;;;;;;;1.96;83.97;100892.78;5083841;28;20369;-22
2022/01/10 07:29:07;;;;;;;16.40;9.23;;;;;;;1.97;84.03;100897.16;5084694;28;20139;-20
2022/01/10 07:31:32;;;;;;;14.32;9.18;;;;;;;1.95;83.52;100888.41;5066064;28;20059;-20
2022/01/10 07:33:57;;;;;;;15.20;9.00;;;;;;;1.98;83.95;100914.53;5071104;28;20269;-21
2022/01/10 07:36:23;;;;;;;13.40;8.15;;;;;;;1.98;83.76;100915.41;5069100;28;20071;-21
2022/01/10 07:38:49;;;;;;;14.38;7.85;;;;;;;1.97;83.89;100934.44;5052495;28;20023;-21
2022/01/10 07:41:14;;;;;;;13.40;8.52;;;;;;;1.98;83.83;100932.72;5066109;28;20020;-22
2022/01/10 07:43:40;;;;;;;10.52;7.78;;;;;;;1.98;83.73;100937.94;5071339;28;20028;-21
2022/01/10 07:46:05;;;;;;;14.27;8.45;;;;;;;1.98;83.90;100937.94;5071420;28;20510;-22
2022/01/10 07:48:34;;;;;;;11.77;7.90;;;;;;;1.97;84.00;100939.63;5070284;28;20028;-20
2022/01/10 07:50:59;;;;;;;13.43;9.13;;;;;;;1.99;83.68;100953.59;5069136;28;20069;-21
2022/01/10 07:53:25;;;;;;;12.65;7.70;;;;;;;1.98;83.71;100956.16;5068574;28;20445;-22
2022/01/10 07:55:50;;;;;;;11.48;7.70;;;;;;;1.99;83.86;100966.59;5070001;28;20027;-21
2022/01/10 07:58:16;;;;;;;10.88;7.57;;;;;;;2.00;83.57;100972.69;5071337;28;20028;-22
2022/01/10 08:00:42;;;;;;;10.90;8.13;;;;;;;1.99;83.82;100969.22;5067806;28;20020;-21
2022/01/10 08:03:08;;;;;;;11.68;7.90;;;;;;;2.00;83.58;100970.09;5074162;28;20012;-22
2022/01/10 08:05:33;;;;;;;12.48;7.63;;;;;;;2.01;83.55;100984.88;5071569;28;20074;-22
2022/01/10 08:07:58;;;;;;;10.65;7.32;;;;;;;1.99;83.71;100984.81;5070951;28;20020;-21
2022/01/10 08:10:23;;;;;;;11.20;7.40;;;;;;;2.01;83.80;100992.66;5070896;28;20074;-21
2022/01/10 08:12:49;;;;;;;11.45;6.85;;;;;;;2.02;83.96;100994.44;5069000;28;20029;-21
2022/01/10 08:15:14;;;;;;;11.63;7.32;;;;;;;2.03;83.80;100993.59;5069239;28;20038;-21
2022/01/10 08:17:40;;;;;;;11.32;7.75;;;;;;;2.03;83.73;100998.78;5066455;28;20119;-22
2022/01/10 08:20:07;;;;;;;13.07;8.02;;;;;;;2.03;83.82;100998.78;5067809;28;20050;-21
2022/01/10 08:22:33;;;;;;;10.80;7.03;;;;;;;2.04;83.75;101003.19;5067421;28;20052;-21
2022/01/10 08:24:58;;;;;;;11.85;8.07;;;;;;;2.06;83.74;101006.69;5070585;28;20718;-20
2022/01/10 08:27:23;;;;;;;12.40;7.38;;;;;;;2.05;83.91;101016.25;5070525;28;20056;-22
2022/01/10 08:29:49;;;;;;;8.63;7.00;;;;;;;2.07;83.75;101021.50;5067763;28;20111;-21
2022/01/10 08:32:15;;;;;;;14.80;7.65;;;;;;;2.07;83.76;101018.00;5068256;28;20052;-22
2022/01/10 08:34:41;;;;;;;9.88;7.05;;;;;;;2.06;83.74;101024.91;5070210;28;20028;-21
2022/01/10 08:37:06;;;;;;;10.60;6.78;;;;;;;2.09;83.53;101032.81;5070783;28;20081;-22
2022/01/10 08:39:32;;;;;;;11.25;7.35;;;;;;;2.09;83.69;101038.03;5068966;28;20071;-22
2022/01/10 08:41:57;;;;;;;11.20;7.30;;;;;;;2.10;83.55;101037.19;5067289;28;20059;-21
2022/01/10 08:44:22;;;;;;;10.05;7.00;;;;;;;2.09;84.10;101035.44;5069247;28;20479;-22
2022/01/10 08:46:48;;;;;;;9.50;6.20;;;;;;;2.13;83.70;101057.25;5069860;28;20077;-22
2022/01/10 08:49:14;;;;;;;9.60;7.45;;;;;;;2.13;83.67;101052.03;5070786;28;20447;-21
2022/01/10 08:51:42;;;;;;;11.52;7.20;;;;;;;2.14;83.83;101059.00;5070621;28;20587;-21
2022/01/10 08:54:08;;;;;;;11.10;6.53;;;;;;;2.11;83.90;101056.28;5087188;28;20029;-20
2022/01/10 08:56:34;;;;;;;10.98;7.18;;;;;;;2.13;83.81;101063.31;5080033;28;20020;-22
2022/01/10 08:59:00;;;;;;;8.30;6.72;;;;;;;2.17;83.79;101066.91;5079517;28;20021;-22
2022/01/10 09:01:26;;;;;;;12.55;7.15;;;;;;;2.18;83.66;101074.78;5079605;28;20095;-21
2022/01/10 09:03:52;;;;;;;11.05;7.53;;;;;;;2.21;83.41;101076.59;5083326;28;20487;-21
2022/01/10 09:06:18;;;;;;;10.52;7.55;;;;;;;2.21;83.92;101083.50;5082410;28;20020;-21
2022/01/10 09:08:44;;;;;;;9.60;6.85;;;;;;;2.23;83.66;101081.84;5084815;28;20374;-22
2022/01/10 09:11:10;;;;;;;10.60;8.10;;;;;;;2.24;83.89;101091.41;5075855;28;20383;-21
2022/01/10 09:13:35;;;;;;;9.57;6.93;;;;;;;2.25;83.72;101103.56;5073881;28;20044;-22
2022/01/10 09:16:04;;;;;;;10.52;6.95;;;;;;;2.26;83.87;101103.63;5071848;28;20024;-22
2022/01/10 09:18:30;;;;;;;15.57;8.55;;;;;;;2.28;83.73;101108.88;5073267;28;20086;-22
2022/01/10 09:20:55;;;;;;;13.80;8.20;;;;;;;2.27;83.80;101107.13;5069135;28;20467;-20
2022/01/10 09:23:22;;;;;;;9.80;7.93;;;;;;;2.29;83.58;101113.25;5076939;28;20020;-20
2022/01/10 09:25:49;;;;;;;14.43;7.57;;;;;;;2.33;83.42;101111.66;5072866;28;20068;-21
2022/01/10 09:28:14;;;;;;;10.65;6.97;;;;;;;2.34;83.77;101116.91;5079943;28;20020;-21
2022/01/10 09:30:40;;;;;;;11.25;7.25;;;;;;;2.35;83.45;101121.28;5073072;28;20044;-21
2022/01/10 09:33:05;;;;;;;14.63;7.75;;;;;;;2.35;83.74;101118.66;5070548;28;20468;-21
2022/01/10 09:35:30;;;;;;;11.00;8.00;;;;;;;2.37;83.60;101135.19;5073413;28;20577;-22
2022/01/10 09:37:56;;;;;;;10.25;7.95;;;;;;;2.38;83.50;101139.59;5071988;28;20479;-22
2022/01/10 09:40:21;;;;;;;11.00;7.20;;;;;;;2.40;83.54;101142.25;5069383;28;20510;-21
2022/01/10 09:42:47;;;;;;;10.70;7.10;;;;;;;2.41;83.78;101147.47;5070061;28;20050;-21
2022/01/10 09:45:12;;;;;;;11.50;7.38;;;;;;;2.43;83.50;101158.84;5072500;28;20089;-21
2022/01/10 09:47:37;;;;;;;10.68;7.43;;;;;;;2.46;83.37;101157.19;5071591;28;20582;-22
2022/01/10 09:50:06;;;;;;;10.40;7.85;;;;;;;2.49;83.45;101168.56;5072213;28;20024;-19
2022/01/10 09:52:32;;;;;;;11.70;7.80;;;;;;;2.49;83.22;101167.69;5075393;28;20483;-20
2022/01/10 09:54:57;;;;;;;12.70;7.30;;;;;;;2.50;83.15;101174.69;5073190;28;20072;-21
2022/01/10 09:57:23;;;;;;;10.40;6.63;;;;;;;2.53;83.28;101172.16;5071528;28;20384;-22
2022/01/10 09:59:48;;;;;;;9.70;7.78;;;;;;;2.57;83.40;101189.66;5072102;28;20467;-21
2022/01/10 10:02:15;;;;;;;13.85;8.57;;;;;;;2.59;83.56;101184.47;5076129;28;20451;-20
2022/01/10 10:04:41;;;;;;;13.05;8.07;;;;;;;2.61;83.53;101185.44;5075382;28;20027;-21
2022/01/10 10:07:07;;;;;;;9.85;7.63;;;;;;;2.63;83.40;101191.59;5071362;28;20024;-22
2022/01/10 10:09:33;;;;;;;14.40;8.13;;;;;;;2.65;83.64;101198.59;5077267;28;20111;-21
2022/01/10 10:12:00;;;;;;;13.13;8.85;;;;;;;2.68;83.76;101201.31;5075286;28;20329;-21
2022/01/10 10:14:26;;;;;;;17.27;8.63;;;;;;;2.69;83.42;101205.69;5051329;28;20127;-21
2022/01/10 10:16:54;;;;;;;13.77;8.95;;;;;;;2.73;84.13;101208.38;5076366;28;20029;-21
2022/01/10 10:19:21;;;;;;;16.40;9.93;;;;;;;2.78;83.62;101215.50;5074208;28;20021;-21
2022/01/10 10:21:47;;;;;;;15.48;9.82;;;;;;;2.78;83.83;101212.91;5070300;28;20020;-22
2022/01/10 10:24:13;;;;;;;15.60;10.30;;;;;;;2.80;83.93;101211.22;5076424;28;20111;-21
2022/01/10 10:26:39;;;;;;;14.88;9.75;;;;;;;2.84;83.35;101216.53;5070436;28;20517;-21
2022/01/10 10:29:04;;;;;;;16.85;9.57;;;;;;;2.88;83.55;101227.09;5067771;28;20017;-22
2022/01/10 10:31:35;;;;;;;18.38;11.50;;;;;;;2.91;83.94;101224.59;5074540;28;20077;-22
2022/01/10 10:34:04;;;;;;;18.23;11.40;;;;;;;2.93;83.53;101228.13;5074585;28;20037;-21
2022/01/10 10:36:31;;;;;;;19.73;10.38;;;;;;;2.94;83.52;101229.88;5072301;28;20049;-21
2022/01/10 10:39:03;;;;;;;14.45;10.00;;;;;;;2.97;83.57;101230.84;5074375;28;20376;-22
2022/01/10 10:41:29;;;;;;;17.30;10.45;;;;;;;3.01;83.41;101237.91;5072713;28;20040;-22
2022/01/10 10:43:55;;;;;;;21.42;10.85;;;;;;;3.01;83.82;101236.19;5074150;28;20368;-21
2022/01/10 10:46:25;;;;;;;15.63;9.73;;;;;;;3.05;83.55;101239.78;5069583;28;20039;-21
2022/01/10 10:48:53;;;;;;;19.17;11.20;;;;;;;3.05;83.37;101245.88;5071852;28;20492;-20
2022/01/10 10:51:19;;;;;;;22.67;11.77;;;;;;;3.10;83.64;101251.22;5076461;28;20593;-20
2022/01/10 10:53:44;;;;;;;21.77;11.40;;;;;;;3.12;83.47;101259.97;5081911;28;20055;-21
2022/01/10 10:56:10;;;;;;;17.58;11.45;;;;;;;3.13;83.89;101253.91;5083512;28;20028;-22
2022/01/10 10:58:36;;;;;;;19.98;11.00;;;;;;;3.16;83.46;101267.06;5086110;28;20080;-21
2022/01/10 11:01:03;;;;;;;25.58;12.85;;;;;;;3.20;84.46;101263.69;5083625;28;20023;-21
2022/01/10 11:03:29;;;;;;;20.13;11.88;;;;;;;3.21;84.17;101265.47;5074267;28;20025;-21
2022/01/10 11:05:57;;;;;;;18.98;11.20;;;;;;;3.23;83.56;101270.72;5078192;28;20414;-21
2022/01/10 11:08:25;;;;;;;21.55;12.77;;;;;;;3.27;83.60;101276.94;5073629;28;20085;-21
2022/01/10 11:10:50;;;;;;;26.02;13.20;;;;;;;3.27;83.94;101279.56;5074758;28;20024;-21
2022/01/10 11:13:16;;;;;;;20.63;13.02;;;;;;;3.29;83.55;101288.28;5081225;28;20110;-21
2022/01/10 11:15:41;;;;;;;22.38;12.93;;;;;;;3.31;83.43;101278.81;5078076;28;20074;-22
2022/01/10 11:18:08;;;;;;;26.23;12.48;;;;;;;3.33;83.37;101291.03;5081830;28;20036;-21
2022/01/10 11:20:47;;;;;;;24.52;12.80;;;;;;;3.37;83.68;101291.16;5077719;28;20525;-22
2022/01/10 11:23:13;;;;;;;19.00;12.35;;;;;;;3.38;83.37;101290.28;5078083;28;20020;-22
2022/01/10 11:25:40;;;;;;;20.33;11.70;;;;;;;3.40;83.81;101291.25;5077682;28;20380;-21
2022/01/10 11:28:25;;;;;;;22.23;12.98;;;;;;;3.42;83.09;101285.22;5076057;28;20031;-22